createdAt,value
2023-04-08T00:00:48.564Z,92.39
2023-04-08T00:02:52.186Z,91.32
2023-04-08T00:04:56.846Z,92.30
2023-04-08T00:06:59.992Z,91.31
2023-04-08T00:09:03.446Z,93.11
2023-04-08T00:11:06.721Z,92.73
2023-04-08T00:13:09.755Z,92.63
2023-04-08T00:15:12.849Z,92.51
2023-04-08T00:17:15.954Z,93.73
2023-04-08T00:19:19.162Z,93.50
2023-04-08T00:21:23.656Z,92.97
2023-04-08T00:23:26.789Z,93.81
2023-04-08T00:25:30.012Z,93.95
2023-04-08T00:27:33.235Z,93.57
2023-04-08T00:29:36.330Z,94.05
2023-04-08T00:31:39.377Z,94.73
2023-04-08T00:33:42.367Z,94.32
2023-04-08T00:35:46.340Z,94.30
2023-04-08T00:37:51.145Z,94.11
2023-04-08T00:39:54.294Z,94.81
2023-04-08T00:41:57.643Z,94.87
2023-04-08T00:44:00.829Z,93.91
2023-04-08T00:46:04.785Z,94.26
2023-04-08T00:48:07.926Z,94.66
2023-04-08T00:50:12.149Z,94.25
2023-04-08T00:52:15.455Z,93.97
2023-04-08T00:54:19.881Z,94.50
2023-04-08T00:56:23.042Z,94.01
2023-04-08T00:58:26.165Z,93.80
2023-04-08T01:00:30.475Z,94.01
2023-04-08T01:02:39.274Z,93.54
2023-04-08T01:04:48.351Z,93.68
2023-04-08T01:06:56.036Z,94.65
2023-04-08T01:09:01.259Z,93.66
2023-04-08T01:11:07.300Z,94.36
2023-04-08T01:13:12.171Z,94.62
2023-04-08T01:15:15.558Z,93.53
2023-04-08T01:17:19.532Z,93.56
2023-04-08T01:19:30.686Z,93.77
2023-04-08T01:21:34.161Z,94.01
2023-04-08T01:23:42.187Z,93.19
2023-04-08T01:25:48.752Z,93.75
2023-04-08T01:27:52.020Z,93.65
2023-04-08T01:29:56.342Z,92.34
2023-04-08T01:32:00.494Z,92.60
2023-04-08T01:34:06.337Z,92.30
2023-04-08T01:36:09.593Z,92.06
2023-04-08T01:38:17.168Z,92.26
2023-04-08T01:40:21.409Z,92.30
2023-04-08T01:42:26.904Z,92.18
2023-04-08T01:44:30.971Z,91.39
2023-04-08T01:46:34.614Z,90.69
2023-04-08T01:48:39.327Z,91.37
2023-04-08T01:50:42.948Z,91.87
2023-04-08T01:52:46.538Z,91.75
2023-04-08T01:54:50.588Z,90.98
2023-04-08T01:56:56.729Z,90.44
2023-04-08T01:59:02.150Z,90.32
2023-04-08T02:01:06.411Z,90.25
2023-04-08T02:03:10.130Z,91.10
2023-04-08T02:05:13.363Z,90.23
2023-04-08T02:07:16.827Z,90.74
2023-04-08T02:09:20.545Z,91.60
2023-04-08T02:11:25.024Z,90.32
2023-04-08T02:13:28.244Z,90.28
2023-04-08T02:15:36.145Z,90.33
2023-04-08T02:17:44.495Z,90.63
2023-04-08T02:19:51.435Z,91.02
2023-04-08T02:21:58.930Z,90.54
2023-04-08T02:24:04.015Z,90.97
2023-04-08T02:26:09.380Z,90.48
2023-04-08T02:28:13.116Z,90.92
2023-04-08T02:30:16.969Z,90.09
2023-04-08T02:32:21.665Z,90.65
2023-04-08T02:34:25.401Z,90.39
2023-04-08T02:36:28.805Z,90.60
2023-04-08T02:38:32.018Z,90.37
2023-04-08T02:40:36.078Z,90.96
2023-04-08T02:42:40.199Z,90.38
2023-04-08T02:44:42.260Z,90.12
2023-04-08T02:46:45.399Z,89.96
2023-04-08T02:48:50.204Z,90.65
2023-04-08T02:50:53.443Z,90.54
2023-04-08T02:52:56.537Z,90.16
2023-04-08T02:54:59.559Z,90.27
2023-04-08T02:57:03.506Z,90.66
2023-04-08T02:59:06.608Z,91.27
2023-04-08T03:01:09.995Z,90.38
2023-04-08T03:03:13.116Z,90.66
2023-04-08T03:05:17.629Z,90.80
2023-04-08T03:07:20.717Z,90.96
2023-04-08T03:09:23.882Z,90.57
2023-04-08T03:11:27.198Z,90.45
2023-04-08T03:13:31.747Z,91.17
2023-04-08T03:15:34.824Z,91.29
2023-04-08T03:17:37.988Z,91.27
2023-04-08T03:19:41.223Z,91.55
2023-04-08T03:21:45.838Z,91.26
2023-04-08T03:23:48.870Z,91.37
2023-04-08T03:25:52.082Z,91.38
2023-04-08T03:27:55.102Z,91.41
2023-04-08T03:29:58.820Z,91.33
2023-04-08T03:32:02.090Z,91.18
2023-04-08T03:34:05.292Z,90.72
2023-04-08T03:36:09.040Z,91.37
2023-04-08T03:38:13.486Z,91.10
2023-04-08T03:40:16.511Z,91.16
2023-04-08T03:42:19.530Z,91.21
2023-04-08T03:44:22.704Z,90.71
2023-04-08T03:46:26.117Z,90.52
2023-04-08T03:48:29.357Z,90.63
2023-04-08T03:50:32.422Z,90.88
2023-04-08T03:52:35.580Z,90.89
2023-04-08T03:54:39.963Z,90.85
2023-04-08T03:56:43.028Z,90.91
2023-04-08T03:58:45.974Z,91.16
2023-04-08T04:00:48.981Z,91.35
2023-04-08T04:02:52.112Z,91.55
2023-04-08T04:04:55.363Z,91.48
2023-04-08T04:06:58.397Z,91.50
2023-04-08T04:09:01.481Z,91.35
2023-04-08T04:11:05.972Z,91.47
2023-04-08T04:13:09.181Z,91.20
2023-04-08T04:15:13.076Z,91.86
2023-04-08T04:17:16.367Z,91.66
2023-04-08T04:19:19.399Z,91.64
2023-04-08T04:21:22.423Z,91.54
2023-04-08T04:23:25.900Z,91.28
2023-04-08T04:25:28.928Z,91.55
2023-04-08T04:27:33.240Z,91.37
2023-04-08T04:29:38.521Z,91.63
2023-04-08T04:31:42.160Z,91.41
2023-04-08T04:33:45.364Z,91.35
2023-04-08T04:35:48.652Z,92.13
2023-04-08T04:37:51.972Z,91.57
2023-04-08T04:39:55.018Z,91.61
2023-04-08T04:41:58.085Z,91.71
2023-04-08T04:44:02.615Z,91.31
2023-04-08T04:46:08.901Z,91.94
2023-04-08T04:48:12.075Z,91.72
2023-04-08T04:50:15.467Z,92.16
2023-04-08T04:52:18.526Z,92.12
2023-04-08T04:54:21.598Z,92.53
2023-04-08T04:56:25.422Z,92.53
2023-04-08T04:58:28.498Z,92.50
2023-04-08T05:00:32.979Z,93.24
2023-04-08T05:02:36.542Z,92.78
2023-04-08T05:04:39.755Z,92.85
2023-04-08T05:06:42.948Z,92.81
2023-04-08T05:08:45.980Z,92.69
2023-04-08T05:10:50.235Z,92.30
2023-04-08T05:12:53.413Z,92.91
2023-04-08T05:14:56.418Z,92.58
2023-04-08T05:17:00.961Z,92.38
2023-04-08T05:19:04.050Z,92.12
2023-04-08T05:21:07.200Z,92.20
2023-04-08T05:23:10.337Z,91.82
2023-04-08T05:25:13.379Z,91.81
2023-04-08T05:27:16.715Z,91.77
2023-04-08T05:29:21.702Z,91.18
2023-04-08T05:31:24.810Z,91.82
2023-04-08T05:33:29.285Z,91.74
2023-04-08T05:35:32.458Z,91.52
2023-04-08T05:37:35.459Z,91.15
2023-04-08T05:39:38.489Z,91.88
2023-04-08T05:41:41.535Z,92.56
2023-04-08T05:43:44.776Z,92.84
2023-04-08T05:45:47.895Z,92.55
2023-04-08T05:47:50.981Z,92.84
2023-04-08T05:49:55.523Z,92.88
2023-04-08T05:51:58.597Z,93.13
2023-04-08T05:54:01.626Z,93.09
2023-04-08T05:56:05.054Z,92.96
2023-04-08T05:58:09.089Z,92.84
2023-04-08T06:00:12.595Z,92.38
2023-04-08T06:02:15.728Z,92.82
2023-04-08T06:04:19.058Z,92.75
2023-04-08T06:06:23.482Z,92.58
2023-04-08T06:08:26.597Z,91.91
2023-04-08T06:10:29.719Z,92.02
2023-04-08T06:12:32.906Z,92.04
2023-04-08T06:14:35.985Z,91.85
2023-04-08T06:16:39.181Z,92.23
2023-04-08T06:18:42.424Z,91.59
2023-04-08T06:20:46.178Z,91.12
2023-04-08T06:22:50.573Z,91.12
2023-04-08T06:24:53.638Z,91.44
2023-04-08T06:26:56.873Z,91.89
2023-04-08T06:29:00.641Z,91.54
2023-04-08T06:31:03.826Z,91.78
2023-04-08T06:33:07.252Z,91.31
2023-04-08T06:35:10.476Z,90.91
2023-04-08T06:37:13.626Z,90.75
2023-04-08T06:39:19.388Z,89.99
2023-04-08T06:41:22.422Z,90.31
2023-04-08T06:43:26.198Z,90.08
2023-04-08T06:45:29.449Z,90.45
2023-04-08T06:47:32.628Z,90.62
2023-04-08T06:49:37.408Z,89.40
2023-04-08T06:51:40.516Z,90.31
2023-04-08T06:53:43.647Z,89.76
2023-04-08T06:55:48.314Z,88.98
2023-04-08T06:57:51.374Z,89.32
2023-04-08T06:59:54.650Z,89.77
2023-04-08T07:01:57.806Z,89.67
2023-04-08T07:04:02.241Z,88.55
2023-04-08T07:06:05.977Z,89.55
2023-04-08T07:08:09.102Z,88.03
2023-04-08T07:10:12.263Z,87.28
2023-04-08T07:12:16.718Z,87.97
2023-04-08T07:14:20.504Z,88.38
2023-04-08T07:16:23.628Z,87.45
2023-04-08T07:18:26.746Z,87.55
2023-04-08T07:20:32.079Z,85.71
2023-04-08T07:22:35.582Z,84.71
2023-04-08T07:24:38.713Z,84.96
2023-04-08T07:26:41.759Z,83.76
2023-04-08T07:28:46.157Z,83.02
2023-04-08T07:30:49.242Z,83.95
2023-04-08T07:32:52.536Z,83.97
2023-04-08T07:34:55.801Z,83.48
2023-04-08T07:36:58.929Z,81.03
2023-04-08T07:39:02.043Z,80.48
2023-04-08T07:41:05.799Z,83.09
2023-04-08T07:43:09.214Z,84.03
2023-04-08T07:45:13.783Z,83.39
2023-04-08T07:47:16.892Z,82.36
2023-04-08T07:49:19.974Z,79.31
2023-04-08T07:51:23.221Z,80.02
2023-04-08T07:53:26.728Z,79.64
2023-04-08T07:55:29.851Z,79.30
2023-04-08T07:57:32.992Z,78.90
2023-04-08T07:59:36.404Z,76.31
2023-04-08T08:01:41.130Z,75.40
2023-04-08T08:03:44.399Z,75.69
2023-04-08T08:05:47.544Z,73.58
2023-04-08T08:07:50.709Z,72.03
2023-04-08T08:09:53.773Z,72.49
2023-04-08T08:11:56.829Z,73.56
2023-04-08T08:13:59.899Z,73.70
2023-04-08T08:16:02.962Z,71.91
2023-04-08T08:18:07.566Z,70.98
2023-04-08T08:20:11.668Z,71.11
2023-04-08T08:22:14.714Z,70.73
2023-04-08T08:24:17.995Z,71.61
2023-04-08T08:26:21.210Z,70.79
2023-04-08T08:28:24.169Z,71.84
2023-04-08T08:30:27.713Z,70.49
2023-04-08T08:32:31.774Z,68.74
2023-04-08T08:34:36.249Z,70.84
2023-04-08T08:36:39.280Z,70.29
2023-04-08T08:38:42.328Z,69.63
2023-04-08T08:40:45.667Z,68.39
2023-04-08T08:42:52.253Z,68.32
2023-04-08T08:44:56.002Z,71.08
2023-04-08T08:46:59.119Z,69.79
2023-04-08T08:49:02.763Z,70.37
2023-04-08T08:51:10.962Z,70.02
2023-04-08T08:53:14.075Z,70.88
2023-04-08T08:55:35.024Z,71.32
2023-04-08T08:57:43.033Z,70.91
2023-04-08T08:59:49.994Z,68.98
2023-04-08T09:01:53.135Z,68.00
2023-04-08T09:04:08.527Z,67.46
2023-04-08T09:06:13.148Z,68.28
2023-04-08T09:08:26.497Z,67.50
2023-04-08T09:10:30.359Z,68.44
2023-04-08T09:12:33.490Z,68.32
2023-04-08T09:14:36.583Z,66.03
2023-04-08T09:16:45.325Z,66.63
2023-04-08T09:18:49.806Z,68.22
2023-04-08T09:20:53.919Z,65.05
2023-04-08T09:23:00.112Z,64.82
2023-04-08T09:25:23.727Z,62.73
2023-04-08T09:27:35.540Z,57.95
2023-04-08T09:29:40.026Z,56.71
2023-04-08T09:31:43.332Z,57.85
2023-04-08T09:33:46.447Z,58.88
2023-04-08T09:35:49.660Z,58.07
2023-04-08T09:37:53.073Z,59.16
2023-04-08T09:39:57.497Z,57.49
2023-04-08T09:42:02.138Z,58.83
2023-04-08T09:44:06.672Z,57.69
2023-04-08T09:46:11.683Z,59.51
2023-04-08T09:48:19.281Z,59.52
2023-04-08T09:50:26.414Z,59.68
2023-04-08T09:52:33.942Z,60.20
2023-04-08T09:54:44.101Z,60.47
2023-04-08T09:56:54.506Z,60.27
2023-04-08T09:59:01.124Z,61.25
2023-04-08T10:01:04.350Z,61.26
2023-04-08T10:03:12.459Z,62.05
2023-04-08T10:05:16.174Z,62.10
2023-04-08T10:07:19.721Z,62.60
2023-04-08T10:09:23.471Z,62.55
2023-04-08T10:11:26.537Z,61.01
2023-04-08T10:13:31.899Z,62.28
2023-04-08T10:15:36.892Z,62.19
2023-04-08T10:17:39.873Z,61.91
2023-04-08T10:19:43.130Z,62.74
2023-04-08T10:21:48.642Z,64.25
2023-04-08T10:23:59.012Z,64.12
2023-04-08T10:26:02.038Z,64.78
2023-04-08T10:28:25.828Z,65.77
2023-04-08T10:30:43.738Z,63.34
2023-04-08T10:32:47.076Z,62.15
2023-04-08T10:34:54.684Z,63.22
2023-04-08T10:37:02.040Z,62.73
2023-04-08T10:39:05.275Z,64.19
2023-04-08T10:41:08.445Z,64.46
2023-04-08T10:43:12.578Z,63.88
2023-04-08T10:45:19.343Z,64.72
2023-04-08T10:47:28.675Z,65.16
2023-04-08T10:49:35.667Z,64.49
2023-04-08T10:51:39.532Z,64.58
2023-04-08T10:53:42.643Z,64.35
2023-04-08T10:55:45.826Z,65.28
2023-04-08T10:57:48.806Z,64.24
2023-04-08T10:59:51.935Z,65.58
2023-04-08T11:01:55.504Z,63.44
2023-04-08T11:04:00.317Z,65.26
2023-04-08T11:06:03.917Z,63.97
2023-04-08T11:08:07.995Z,65.02
2023-04-08T11:10:11.266Z,65.50
2023-04-08T11:12:18.065Z,64.84
2023-04-08T11:14:22.307Z,66.09
2023-04-08T11:16:26.000Z,66.67
2023-04-08T11:18:29.478Z,66.16
2023-04-08T11:20:38.211Z,66.05
2023-04-08T11:22:41.628Z,66.19
2023-04-08T11:24:45.208Z,66.39
2023-04-08T11:26:48.512Z,66.77
2023-04-08T11:28:52.325Z,66.94
2023-04-08T11:30:56.085Z,67.01
2023-04-08T11:32:59.374Z,67.35
2023-04-08T11:35:02.932Z,68.43
2023-04-08T11:37:07.493Z,67.58
2023-04-08T11:39:12.094Z,67.97
2023-04-08T11:41:15.853Z,68.29
2023-04-08T11:43:18.914Z,68.56
2023-04-08T11:45:22.698Z,68.29
2023-04-08T11:47:32.198Z,68.45
2023-04-08T11:49:45.708Z,68.31
2023-04-08T11:51:57.731Z,67.55
2023-04-08T11:54:02.707Z,67.18
2023-04-08T11:56:18.516Z,67.19
2023-04-08T11:58:21.728Z,68.07
2023-04-08T12:00:28.015Z,68.21
2023-04-08T12:02:31.291Z,68.31
2023-04-08T12:04:34.599Z,67.42
2023-04-08T12:06:37.791Z,68.28
2023-04-08T12:08:40.847Z,66.99
2023-04-08T12:10:45.314Z,65.31
2023-04-08T12:12:48.406Z,67.19
2023-04-08T12:14:51.557Z,67.48
2023-04-08T12:16:54.623Z,65.45
2023-04-08T12:18:57.707Z,66.08
2023-04-08T12:21:00.782Z,66.96
2023-04-08T12:23:03.973Z,66.08
2023-04-08T12:25:07.591Z,64.67
2023-04-08T12:27:12.182Z,65.69
2023-04-08T12:29:15.294Z,64.53
2023-04-08T12:31:18.595Z,65.01
2023-04-08T12:33:21.856Z,64.19
2023-04-08T12:35:25.027Z,64.33
2023-04-08T12:37:28.596Z,64.46
2023-04-08T12:39:31.756Z,65.57
2023-04-08T12:41:34.815Z,66.92
2023-04-08T12:43:39.678Z,63.78
2023-04-08T12:45:43.367Z,64.92
2023-04-08T12:47:46.410Z,64.50
2023-04-08T12:49:50.110Z,65.21
2023-04-08T12:51:53.603Z,64.97
2023-04-08T12:53:56.688Z,63.90
2023-04-08T12:55:59.788Z,64.38
2023-04-08T12:58:02.865Z,64.63
2023-04-08T13:00:09.388Z,64.39
2023-04-08T13:02:12.521Z,65.18
2023-04-08T13:04:15.697Z,63.54
2023-04-08T13:06:18.835Z,64.83
2023-04-08T13:08:21.947Z,65.85
2023-04-08T13:10:25.078Z,66.39
2023-04-08T13:12:28.216Z,65.24
2023-04-08T13:14:31.336Z,65.40
2023-04-08T13:16:35.905Z,66.75
2023-04-08T13:18:39.133Z,65.31
2023-04-08T13:20:42.205Z,64.74
2023-04-08T13:22:45.408Z,66.27
2023-04-08T13:24:48.889Z,66.03
2023-04-08T13:26:52.431Z,64.97
2023-04-08T13:28:57.674Z,66.59
2023-04-08T13:31:01.334Z,66.92
2023-04-08T13:33:07.105Z,68.26
2023-04-08T13:35:10.633Z,67.55
2023-04-08T13:37:13.724Z,66.95
2023-04-08T13:39:16.908Z,67.60
2023-04-08T13:41:21.189Z,68.73
2023-04-08T13:43:24.276Z,66.90
2023-04-08T13:45:27.571Z,68.79
2023-04-08T13:47:31.174Z,69.06
2023-04-08T13:49:35.796Z,68.62
2023-04-08T13:51:38.969Z,68.21
2023-04-08T13:53:42.133Z,68.18
2023-04-08T13:55:45.332Z,69.47
2023-04-08T13:57:48.600Z,69.71
2023-04-08T13:59:51.628Z,69.49
2023-04-08T14:01:55.344Z,68.75
2023-04-08T14:03:58.751Z,69.14
2023-04-08T14:06:03.165Z,68.14
2023-04-08T14:08:06.610Z,69.09
2023-04-08T14:10:10.933Z,67.82
2023-04-08T14:12:14.098Z,68.59
2023-04-08T14:14:17.253Z,69.43
2023-04-08T14:16:20.399Z,69.88
2023-04-08T14:18:23.518Z,69.21
2023-04-08T14:20:26.538Z,70.43
2023-04-08T14:22:30.989Z,68.12
2023-04-08T14:24:34.429Z,69.36
2023-04-08T14:26:38.446Z,69.97
2023-04-08T14:28:41.742Z,69.28
2023-04-08T14:30:44.827Z,70.07
2023-04-08T14:32:48.537Z,68.54
2023-04-08T14:34:51.872Z,68.72
2023-04-08T14:36:55.018Z,68.31
2023-04-08T14:38:59.818Z,70.77
2023-04-08T14:41:02.935Z,69.11
2023-04-08T14:43:06.321Z,69.40
2023-04-08T14:45:10.399Z,71.13
2023-04-08T14:47:13.520Z,68.93
2023-04-08T14:49:16.722Z,69.97
2023-04-08T14:51:19.916Z,71.86
2023-04-08T14:53:26.373Z,71.23
2023-04-08T14:55:32.346Z,70.71
2023-04-08T14:57:35.433Z,71.37
2023-04-08T14:59:38.871Z,72.66
2023-04-08T15:01:42.175Z,72.40
2023-04-08T15:03:48.214Z,72.50
2023-04-08T15:05:51.357Z,73.84
2023-04-08T15:07:54.938Z,71.65
2023-04-08T15:09:58.162Z,71.88
2023-04-08T15:12:02.637Z,73.68
2023-04-08T15:14:05.711Z,73.59
2023-04-08T15:16:08.892Z,73.60
2023-04-08T15:18:12.232Z,73.77
2023-04-08T15:20:15.397Z,74.22
2023-04-08T15:22:18.460Z,74.08
2023-04-08T15:24:21.601Z,73.71
2023-04-08T15:26:25.250Z,73.58
2023-04-08T15:28:29.637Z,73.41
2023-04-08T15:30:35.514Z,74.94
2023-04-08T15:32:39.982Z,73.85
2023-04-08T15:34:43.077Z,74.58
2023-04-08T15:36:47.475Z,73.99
2023-04-08T15:38:50.863Z,74.60
2023-04-08T15:40:54.123Z,75.16
2023-04-08T15:42:57.229Z,74.61
2023-04-08T15:45:01.902Z,75.24
2023-04-08T15:47:04.997Z,75.90
2023-04-08T15:49:08.159Z,76.48
2023-04-08T15:51:13.261Z,74.81
2023-04-08T15:53:16.307Z,76.19
2023-04-08T15:55:19.343Z,75.82
2023-04-08T15:57:26.617Z,74.31
2023-04-08T15:59:30.416Z,75.50
2023-04-08T16:01:35.041Z,74.27
2023-04-08T16:03:38.521Z,74.14
2023-04-08T16:05:42.269Z,75.33
2023-04-08T16:07:45.471Z,74.82
2023-04-08T16:09:48.513Z,73.35
2023-04-08T16:11:53.213Z,75.17
2023-04-08T16:13:57.345Z,75.16
2023-04-08T16:16:02.631Z,75.52
2023-04-08T16:18:07.933Z,73.93
2023-04-08T16:20:12.242Z,73.22
2023-04-08T16:22:15.401Z,74.26
2023-04-08T16:24:20.778Z,74.53
2023-04-08T16:26:24.267Z,73.99
2023-04-08T16:28:28.064Z,73.45
2023-04-08T16:30:31.137Z,73.41
2023-04-08T16:32:34.260Z,72.91
2023-04-08T16:34:38.889Z,73.07
2023-04-08T16:36:42.299Z,74.24
2023-04-08T16:38:45.453Z,74.75
2023-04-08T16:40:48.552Z,73.65
2023-04-08T16:42:52.282Z,72.37
2023-04-08T16:44:57.319Z,74.52
2023-04-08T16:47:00.561Z,72.99
2023-04-08T16:49:03.708Z,73.34
2023-04-08T16:51:08.345Z,72.70
2023-04-08T16:53:11.761Z,73.00
2023-04-08T16:55:14.962Z,72.41
2023-04-08T16:57:18.164Z,73.81
2023-04-08T16:59:21.214Z,72.26
2023-04-08T17:01:24.404Z,72.60
2023-04-08T17:03:28.031Z,73.66
2023-04-08T17:05:31.188Z,71.64
2023-04-08T17:07:35.976Z,73.18
2023-04-08T17:09:39.075Z,72.54
2023-04-08T17:11:42.218Z,73.53
2023-04-08T17:13:45.586Z,72.53
2023-04-08T17:15:48.627Z,73.13
2023-04-08T17:17:51.687Z,74.11
2023-04-08T17:19:54.837Z,73.98
2023-04-08T17:21:58.675Z,72.58
2023-04-08T17:24:03.221Z,72.77
2023-04-08T17:26:09.598Z,72.78
2023-04-08T17:28:12.942Z,73.09
2023-04-08T17:30:16.263Z,72.98
2023-04-08T17:32:19.557Z,74.68
2023-04-08T17:34:22.693Z,74.39
2023-04-08T17:36:25.778Z,74.44
2023-04-08T17:38:28.857Z,72.83
2023-04-08T17:40:34.437Z,72.38
2023-04-08T17:42:37.596Z,73.48
2023-04-08T17:44:42.224Z,74.20
2023-04-08T17:46:45.576Z,72.91
2023-04-08T17:48:48.631Z,74.82
2023-04-08T17:50:51.663Z,73.13
2023-04-08T17:52:54.787Z,74.55
2023-04-08T17:54:58.243Z,75.91
2023-04-08T17:57:02.969Z,75.27
2023-04-08T17:59:06.252Z,75.65
2023-04-08T18:01:09.366Z,74.85
2023-04-08T18:03:12.561Z,76.27
2023-04-08T18:05:15.783Z,75.68
2023-04-08T18:07:19.016Z,76.25
2023-04-08T18:09:22.122Z,76.82
2023-04-08T18:11:27.062Z,76.64
2023-04-08T18:13:31.450Z,75.22
2023-04-08T18:15:36.109Z,76.35
2023-04-08T18:17:39.233Z,76.92
2023-04-08T18:19:42.321Z,78.29
2023-04-08T18:21:45.395Z,77.19
2023-04-08T18:23:48.561Z,77.01
2023-04-08T18:25:51.768Z,77.82
2023-04-08T18:27:54.806Z,77.26
2023-04-08T18:29:59.316Z,76.71
2023-04-08T18:32:02.429Z,78.05
2023-04-08T18:34:06.451Z,77.54
2023-04-08T18:36:10.196Z,77.86
2023-04-08T18:38:13.489Z,77.63
2023-04-08T18:40:16.607Z,77.98
2023-04-08T18:42:19.715Z,77.68
2023-04-08T18:44:23.403Z,77.83
2023-04-08T18:46:27.889Z,79.07
2023-04-08T18:48:31.242Z,79.29
2023-04-08T18:50:34.337Z,77.71
2023-04-08T18:52:37.625Z,77.54
2023-04-08T18:54:40.792Z,79.09
2023-04-08T18:56:43.942Z,79.27
2023-04-08T18:58:47.272Z,78.83
2023-04-08T19:00:50.438Z,78.86
2023-04-08T19:02:54.902Z,78.23
2023-04-08T19:04:58.481Z,79.28
2023-04-08T19:07:01.503Z,79.71
2023-04-08T19:09:04.652Z,78.26
2023-04-08T19:11:08.360Z,79.82
2023-04-08T19:13:11.453Z,78.33
2023-04-08T19:15:15.074Z,79.39
2023-04-08T19:17:18.084Z,78.47
2023-04-08T19:19:22.468Z,79.24
2023-04-08T19:21:25.650Z,78.79
2023-04-08T19:23:28.816Z,80.11
2023-04-08T19:25:31.875Z,79.29
2023-04-08T19:27:34.924Z,77.60
2023-04-08T19:29:38.060Z,79.41
2023-04-08T19:31:41.130Z,79.45
2023-04-08T19:33:44.525Z,79.02
2023-04-08T19:35:50.684Z,79.87
2023-04-08T19:37:53.840Z,79.51
2023-04-08T19:39:56.940Z,80.55
2023-04-08T19:41:59.948Z,79.08
2023-04-08T19:44:03.098Z,79.50
2023-04-08T19:46:06.799Z,79.03
2023-04-08T19:48:09.923Z,79.45
2023-04-08T19:50:13.668Z,80.15
2023-04-08T19:52:18.114Z,81.10
2023-04-08T19:54:21.690Z,79.77
2023-04-08T19:56:25.574Z,80.10
2023-04-08T19:58:28.695Z,78.56
2023-04-08T20:00:32.537Z,79.60
2023-04-08T20:02:35.913Z,78.44
2023-04-08T20:04:39.172Z,78.78
2023-04-08T20:06:42.666Z,79.19
2023-04-08T20:08:47.295Z,78.92
2023-04-08T20:10:50.649Z,80.42
2023-04-08T20:12:53.907Z,80.53
2023-04-08T20:14:57.030Z,80.58
2023-04-08T20:17:00.186Z,80.10
2023-04-08T20:19:03.247Z,79.62
2023-04-08T20:21:07.210Z,79.18
2023-04-08T20:23:10.597Z,78.81
2023-04-08T20:25:15.224Z,79.46
2023-04-08T20:27:19.542Z,78.93
2023-04-08T20:29:22.595Z,79.80
2023-04-08T20:31:25.686Z,80.60
2023-04-08T20:33:28.762Z,80.31
2023-04-08T20:35:32.144Z,80.48
2023-04-08T20:37:35.670Z,81.59
2023-04-08T20:39:38.751Z,81.22
2023-04-08T20:41:43.818Z,81.67
2023-04-08T20:43:46.919Z,82.08
2023-04-08T20:45:53.668Z,81.58
2023-04-08T20:47:56.712Z,82.19
2023-04-08T20:49:59.864Z,81.78
2023-04-08T20:52:03.018Z,81.71
2023-04-08T20:54:06.092Z,81.37
2023-04-08T20:56:09.210Z,82.00
2023-04-08T20:58:13.719Z,81.35
2023-04-08T21:00:17.290Z,81.10
2023-04-08T21:02:21.809Z,81.61
2023-04-08T21:04:25.075Z,81.99
2023-04-08T21:06:28.605Z,82.24
2023-04-08T21:08:31.986Z,82.58
2023-04-08T21:10:35.150Z,82.71
2023-04-08T21:12:38.233Z,83.05
2023-04-08T21:14:45.162Z,83.03
2023-04-08T21:16:48.438Z,83.14
2023-04-08T21:18:51.803Z,83.19
2023-04-08T21:20:55.719Z,83.46
2023-04-08T21:22:59.720Z,83.67
2023-04-08T21:25:02.942Z,83.98
2023-04-08T21:27:06.021Z,83.82
2023-04-08T21:29:09.121Z,83.93
2023-04-08T21:31:14.038Z,84.23
2023-04-08T21:33:17.263Z,83.87
2023-04-08T21:35:20.475Z,84.25
2023-04-08T21:37:23.802Z,84.38
2023-04-08T21:39:27.024Z,84.37
2023-04-08T21:41:30.652Z,84.58
2023-04-08T21:43:33.786Z,84.63
2023-04-08T21:45:36.899Z,84.44
2023-04-08T21:47:41.423Z,84.81
2023-04-08T21:49:44.629Z,85.28
2023-04-08T21:51:47.731Z,85.14
2023-04-08T21:53:51.817Z,85.58
2023-04-08T21:55:55.088Z,85.53
2023-04-08T21:57:58.124Z,85.60
2023-04-08T22:00:01.238Z,85.97
2023-04-08T22:02:04.640Z,85.78
2023-04-08T22:04:09.448Z,85.29
2023-04-08T22:06:22.070Z,85.84
2023-04-08T22:08:28.882Z,86.44
2023-04-08T22:10:31.943Z,86.40
2023-04-08T22:12:35.088Z,85.78
2023-04-08T22:14:38.205Z,86.43
2023-04-08T22:16:41.748Z,85.98
2023-04-08T22:18:44.923Z,85.71
2023-04-08T22:20:49.414Z,85.60
2023-04-08T22:22:52.529Z,85.73
2023-04-08T22:24:55.900Z,86.87
2023-04-08T22:26:59.046Z,86.19
2023-04-08T22:29:02.304Z,86.63
2023-04-08T22:31:10.092Z,86.28
2023-04-08T22:33:13.246Z,86.61
2023-04-08T22:35:16.745Z,87.02
2023-04-08T22:37:22.116Z,86.87
2023-04-08T22:39:26.118Z,87.42
2023-04-08T22:41:29.429Z,86.67
2023-04-08T22:43:32.544Z,86.70
2023-04-08T22:45:37.666Z,87.00
2023-04-08T22:47:40.854Z,86.95
2023-04-08T22:49:44.324Z,86.60
2023-04-08T22:51:47.410Z,87.02
2023-04-08T22:53:51.894Z,86.77
2023-04-08T22:55:55.011Z,86.58
2023-04-08T22:57:58.163Z,87.16
2023-04-08T23:00:03.844Z,86.69
2023-04-08T23:02:07.513Z,87.05
2023-04-08T23:04:10.800Z,87.62
2023-04-08T23:06:15.069Z,87.18
2023-04-08T23:08:18.082Z,87.56
2023-04-08T23:10:22.484Z,86.88
2023-04-08T23:12:25.543Z,87.58
2023-04-08T23:14:28.644Z,87.93
2023-04-08T23:16:31.838Z,87.29
2023-04-08T23:18:34.865Z,87.08
2023-04-08T23:20:37.952Z,86.85
2023-04-08T23:22:40.960Z,87.47
2023-04-08T23:24:44.047Z,88.25
2023-04-08T23:26:48.803Z,87.99
2023-04-08T23:28:52.135Z,87.45
2023-04-08T23:30:55.528Z,87.59
2023-04-08T23:32:58.712Z,87.65
2023-04-08T23:35:02.221Z,88.45
2023-04-08T23:37:05.370Z,87.98
2023-04-08T23:39:08.418Z,88.37
2023-04-08T23:41:11.490Z,87.00
2023-04-08T23:43:16.014Z,86.99
2023-04-08T23:45:19.195Z,87.87
2023-04-08T23:47:22.613Z,87.97
2023-04-08T23:49:25.646Z,87.66
2023-04-08T23:51:28.883Z,87.96
2023-04-08T23:53:31.934Z,88.80
2023-04-08T23:55:34.959Z,88.70
2023-04-08T23:57:38.008Z,87.75
2023-04-08T23:59:42.495Z,89.27
